Time;durP1;ratioP1;P1;durP2;ratioP2;P2;SDS_P1;SDS_P2;PMS_P1;PMS_P2;Temp;Humidity;BMP_temperature;BMP_pressure;BME280_temperature;BME280_humidity;BME280_pressure;Samples;Min_cycle;Max_cycle;Signal;HPM_P1;HPM_P2
2022/07/24 00:01:17;;;;;;;14.18;10.52;;;;;;;19.86;100.00;95887.38;5069368;28;20040;-77
2022/07/24 00:03:43;;;;;;;12.85;10.25;;;;;;;19.79;100.00;95887.88;5067671;28;20044;-77
2022/07/24 00:06:08;;;;;;;13.35;10.27;;;;;;;19.77;100.00;95884.72;5072206;28;20102;-77
2022/07/24 00:08:34;;;;;;;17.00;10.77;;;;;;;19.87;100.00;95895.06;5068581;28;20044;-77
2022/07/24 00:10:59;;;;;;;15.05;9.75;;;;;;;19.90;100.00;95894.44;5071318;28;20033;-77
2022/07/24 00:13:25;;;;;;;14.02;10.18;;;;;;;19.83;100.00;95894.16;5069077;28;20033;-77
2022/07/24 00:15:50;;;;;;;14.23;11.05;;;;;;;19.81;100.00;95891.03;5065127;28;20036;-77
2022/07/24 00:18:16;;;;;;;16.50;10.38;;;;;;;19.84;100.00;95895.72;5068053;28;20052;-77
2022/07/24 00:20:41;;;;;;;14.32;10.40;;;;;;;19.79;100.00;95887.88;5059622;28;20044;-77
2022/07/24 00:23:07;;;;;;;15.80;10.82;;;;;;;19.77;100.00;95898.06;5064280;28;20117;-78
2022/07/24 00:25:32;;;;;;;13.82;10.18;;;;;;;19.73;100.00;95902.47;5074290;28;20126;-77
2022/07/24 00:27:58;;;;;;;16.67;10.43;;;;;;;19.71;100.00;95904.66;5062930;28;20498;-77
2022/07/24 00:30:23;;;;;;;13.90;10.05;;;;;;;19.59;100.00;95893.88;5068124;28;20056;-77
2022/07/24 00:32:49;;;;;;;15.00;10.10;;;;;;;19.52;100.00;95889.81;5063336;28;20037;-77
2022/07/24 00:35:14;;;;;;;15.80;10.68;;;;;;;19.47;100.00;95881.97;5072662;28;20037;-78
2022/07/24 00:37:40;;;;;;;14.05;10.95;;;;;;;19.46;100.00;95880.38;5062489;28;20033;-77
2022/07/24 00:40:06;;;;;;;15.40;10.98;;;;;;;19.49;100.00;95878.97;5069381;28;20111;-77
2022/07/24 00:42:31;;;;;;;15.52;10.40;;;;;;;19.45;100.00;95884.19;5066242;28;20457;-77
2022/07/24 00:44:57;;;;;;;15.45;10.70;;;;;;;19.38;100.00;95894.56;5069145;28;20146;-77
2022/07/24 00:47:22;;;;;;;15.43;10.00;;;;;;;19.38;100.00;95883.88;5068040;28;20040;-77
2022/07/24 00:49:48;;;;;;;17.73;10.80;;;;;;;19.43;100.00;95897.03;5065952;28;20044;-76
2022/07/24 00:52:13;;;;;;;14.95;10.63;;;;;;;19.48;100.00;95888.06;5071426;28;20047;-77
2022/07/24 00:54:39;;;;;;;13.55;10.73;;;;;;;19.51;100.00;95892.78;5068554;28;20558;-77
2022/07/24 00:57:04;;;;;;;14.57;10.65;;;;;;;19.46;100.00;95895.63;5067547;28;20051;-77
2022/07/24 00:59:30;;;;;;;15.48;10.88;;;;;;;19.42;100.00;95890.13;5063956;28;20071;-77
2022/07/24 01:01:55;;;;;;;14.88;10.63;;;;;;;19.37;100.00;95882.31;5070795;28;20048;-77
2022/07/24 01:04:21;;;;;;;15.32;10.82;;;;;;;19.45;100.00;95894.84;5059259;28;20071;-77
2022/07/24 01:06:47;;;;;;;13.30;9.98;;;;;;;19.40;100.00;95889.66;5065056;28;20050;-77
2022/07/24 01:09:13;;;;;;;14.50;10.45;;;;;;;19.37;100.00;95887.63;5069752;28;20044;-77
2022/07/24 01:11:39;;;;;;;15.48;10.30;;;;;;;19.34;100.00;95893.59;5070603;28;20086;-77
2022/07/24 01:14:06;;;;;;;15.30;10.55;;;;;;;19.43;100.00;95886.38;5070598;28;20063;-78
2022/07/24 01:16:33;;;;;;;15.60;10.55;;;;;;;19.40;100.00;95881.66;5070759;28;20044;-77
2022/07/24 01:18:58;;;;;;;13.88;10.18;;;;;;;19.31;100.00;95888.88;5066643;28;20047;-77
2022/07/24 01:21:25;;;;;;;15.52;10.77;;;;;;;19.29;100.00;95885.75;5061121;28;20044;-78
2022/07/24 01:23:51;;;;;;;14.15;10.55;;;;;;;19.39;100.00;95885.41;5064903;28;20413;-77
2022/07/24 01:26:16;;;;;;;14.40;10.10;;;;;;;19.34;100.00;95888.28;5059171;28;20032;-77
2022/07/24 01:28:42;;;;;;;16.55;10.68;;;;;;;19.35;100.00;95879.16;5061806;28;20091;-77
2022/07/24 01:31:07;;;;;;;13.50;10.50;;;;;;;19.36;100.00;95881.50;5064295;28;20538;-77
2022/07/24 01:33:33;;;;;;;14.63;10.50;;;;;;;19.40;100.00;95887.00;5069910;28;20047;-76
2022/07/24 01:35:58;;;;;;;17.15;10.23;;;;;;;19.35;100.00;95879.16;5070742;28;20080;-77
2022/07/24 01:38:24;;;;;;;15.60;11.35;;;;;;;19.38;100.00;95883.88;5066505;28;20060;-77
2022/07/24 01:40:49;;;;;;;13.85;10.02;;;;;;;19.40;100.00;95876.31;5062042;28;20048;-76
2022/07/24 01:43:15;;;;;;;15.23;10.50;;;;;;;19.37;100.00;95876.97;5066092;28;20107;-76
2022/07/24 01:45:40;;;;;;;17.17;10.65;;;;;;;19.38;100.00;95873.19;5063711;28;20093;-77
2022/07/24 01:48:06;;;;;;;13.57;10.48;;;;;;;19.32;100.00;95877.91;5069745;28;20051;-77
2022/07/24 01:50:32;;;;;;;15.02;10.65;;;;;;;19.37;100.00;95876.97;5065496;28;20037;-77
2022/07/24 01:52:58;;;;;;;17.25;10.95;;;;;;;19.35;100.00;95869.28;5062993;28;20045;-77
2022/07/24 01:55:24;;;;;;;16.88;10.93;;;;;;;19.32;100.00;95869.09;5064510;28;20105;-77
2022/07/24 01:57:49;;;;;;;14.93;11.13;;;;;;;19.36;100.00;95862.03;5067061;28;20044;-77
2022/07/24 02:00:16;;;;;;;16.77;11.18;;;;;;;19.37;100.00;95866.28;5058375;28;20037;-77
2022/07/24 02:02:43;;;;;;;16.45;10.80;;;;;;;19.33;100.00;95860.00;5053559;28;20052;-77
2022/07/24 02:05:12;;;;;;;13.68;10.52;;;;;;;19.29;100.00;95861.75;5070374;28;20568;-77
2022/07/24 02:07:39;;;;;;;13.85;10.52;;;;;;;19.32;100.00;95863.78;5061804;28;20048;-76
2022/07/24 02:10:05;;;;;;;14.60;10.68;;;;;;;19.31;100.00;95867.53;5072208;28;20063;-77
2022/07/24 02:12:30;;;;;;;15.50;10.68;;;;;;;19.24;100.00;95861.91;5072179;28;20064;-77
2022/07/24 02:14:56;;;;;;;13.80;10.52;;;;;;;19.26;100.00;95865.06;5073137;28;20069;-77
2022/07/24 02:17:22;;;;;;;18.05;11.43;;;;;;;19.32;100.00;95869.09;5069345;28;20123;-77
2022/07/24 02:19:47;;;;;;;15.77;10.88;;;;;;;19.29;100.00;95875.09;5073161;28;20196;-77
2022/07/24 02:22:13;;;;;;;15.27;10.43;;;;;;;19.18;100.00;95859.41;5081761;28;20049;-78
2022/07/24 02:24:39;;;;;;;16.23;11.10;;;;;;;19.11;100.00;95853.78;5095890;28;20047;-77
2022/07/24 02:27:04;;;;;;;14.57;10.63;;;;;;;19.07;100.00;95858.16;5086679;28;20069;-78
2022/07/24 02:29:30;;;;;;;17.15;10.77;;;;;;;19.01;100.00;95859.44;5066766;28;20401;-77
2022/07/24 02:31:55;;;;;;;15.75;11.30;;;;;;;18.90;100.00;95858.19;5068842;28;20055;-77
2022/07/24 02:34:20;;;;;;;14.13;10.82;;;;;;;18.81;100.00;95861.59;5066577;28;20099;-77
2022/07/24 02:36:46;;;;;;;16.05;11.77;;;;;;;18.70;100.00;95857.66;5083276;28;20044;-77
2022/07/24 02:39:11;;;;;;;14.95;10.68;;;;;;;18.66;100.00;95851.38;5062317;28;20033;-77
2022/07/24 02:41:37;;;;;;;16.23;11.30;;;;;;;18.69;100.00;95854.22;5055632;28;20045;-77
2022/07/24 02:44:02;;;;;;;14.38;10.95;;;;;;;18.70;100.00;95860.31;5062709;28;20037;-77
2022/07/24 02:46:28;;;;;;;13.63;10.98;;;;;;;18.62;100.00;95864.56;5061741;28;20048;-76
2022/07/24 02:48:53;;;;;;;16.17;11.82;;;;;;;18.56;100.00;95865.00;5065595;28;20124;-77
2022/07/24 02:51:19;;;;;;;16.85;10.90;;;;;;;18.45;100.00;95865.31;5065195;28;20136;-77
2022/07/24 02:53:44;;;;;;;14.95;11.20;;;;;;;18.45;100.00;95869.88;5067319;28;20054;-78
2022/07/24 02:56:10;;;;;;;15.00;12.07;;;;;;;18.45;100.00;95881.31;5069411;28;20466;-77
2022/07/24 02:58:35;;;;;;;16.00;11.90;;;;;;;18.48;100.00;95880.69;5065671;28;20064;-77
2022/07/24 03:01:01;;;;;;;16.13;11.65;;;;;;;18.53;100.00;95877.06;5069379;28;20041;-77
2022/07/24 03:03:26;;;;;;;15.40;11.38;;;;;;;18.42;100.00;95865.94;5063921;28;20040;-77
2022/07/24 03:05:52;;;;;;;18.15;11.73;;;;;;;18.38;100.00;95870.31;5063983;28;20098;-77
2022/07/24 03:08:17;;;;;;;16.50;11.80;;;;;;;18.37;100.00;95868.75;5068077;28;20557;-77
2022/07/24 03:10:43;;;;;;;21.80;11.50;;;;;;;18.29;100.00;95861.53;5064491;28;20045;-77
2022/07/24 03:13:08;;;;;;;16.08;11.38;;;;;;;18.27;100.00;95867.13;5065673;28;20762;-77
2022/07/24 03:15:34;;;;;;;17.40;11.52;;;;;;;18.16;100.00;95858.66;5070016;28;20052;-78
2022/07/24 03:17:59;;;;;;;17.27;12.40;;;;;;;18.10;100.00;95859.91;5065934;28;20044;-78
2022/07/24 03:20:27;;;;;;;15.43;11.38;;;;;;;18.10;100.00;95870.56;5053376;28;20116;-79
2022/07/24 03:22:52;;;;;;;17.85;11.63;;;;;;;18.01;100.00;95861.75;5064034;28;20033;-78
2022/07/24 03:25:18;;;;;;;17.60;12.10;;;;;;;18.01;100.00;95861.75;5069401;28;20055;-78
2022/07/24 03:27:45;;;;;;;19.30;11.40;;;;;;;17.93;100.00;95865.16;5059638;28;20060;-77
2022/07/24 03:30:10;;;;;;;16.55;11.73;;;;;;;17.90;100.00;95860.41;5067100;28;20044;-78
2022/07/24 03:32:36;;;;;;;15.50;11.18;;;;;;;17.78;100.00;95861.78;5069536;28;20041;-78
2022/07/24 03:35:02;;;;;;;15.88;10.48;;;;;;;17.81;100.00;95863.84;5062663;28;20037;-78
2022/07/24 03:37:28;;;;;;;14.82;11.70;;;;;;;17.73;100.00;95864.59;5058694;28;20071;-77
2022/07/24 03:39:54;;;;;;;16.02;11.35;;;;;;;17.68;100.00;95864.72;5066514;28;20511;-77
2022/07/24 03:42:19;;;;;;;18.05;12.07;;;;;;;17.65;100.00;95860.00;5057996;28;20076;-77
2022/07/24 03:44:45;;;;;;;14.75;10.52;;;;;;;17.60;100.00;95873.47;5066462;28;20426;-77
2022/07/24 03:47:10;;;;;;;15.43;11.80;;;;;;;17.62;100.00;95865.94;5066266;28;20047;-77
2022/07/24 03:49:36;;;;;;;15.30;11.43;;;;;;;17.53;100.00;95873.06;5063971;28;20075;-77
2022/07/24 03:52:02;;;;;;;16.63;11.48;;;;;;;17.48;100.00;95872.13;5066441;28;20067;-77
2022/07/24 03:54:28;;;;;;;16.52;11.90;;;;;;;17.45;100.00;95862.09;5067950;28;20124;-77
2022/07/24 03:56:53;;;;;;;15.15;11.00;;;;;;;17.38;100.00;95872.38;5055898;28;20036;-77
2022/07/24 03:59:19;;;;;;;16.52;11.55;;;;;;;17.27;100.00;95876.41;5068871;28;20032;-77
2022/07/24 04:01:44;;;;;;;16.00;11.35;;;;;;;17.35;100.00;95883.63;5062923;28;20041;-77
2022/07/24 04:04:10;;;;;;;16.42;10.88;;;;;;;17.34;100.00;95882.06;5067795;28;20040;-77
2022/07/24 04:06:36;;;;;;;18.92;12.48;;;;;;;17.28;100.00;95883.25;5058668;28;20037;-78
2022/07/24 04:09:03;;;;;;;17.95;12.10;;;;;;;17.26;100.00;95885.44;5066487;28;20123;-78
2022/07/24 04:11:28;;;;;;;17.90;12.52;;;;;;;17.25;100.00;95889.97;5073361;28;20032;-78
2022/07/24 04:13:54;;;;;;;16.83;11.43;;;;;;;17.25;100.00;95886.53;5066460;28;20101;-78
2022/07/24 04:16:19;;;;;;;16.60;12.23;;;;;;;17.23;100.00;95888.72;5068138;28;20169;-78
2022/07/24 04:18:45;;;;;;;16.38;12.55;;;;;;;17.16;100.00;95880.38;5066550;28;20037;-76
2022/07/24 04:21:10;;;;;;;17.13;12.23;;;;;;;17.16;100.00;95880.38;5060860;28;20051;-76
2022/07/24 04:23:36;;;;;;;17.38;12.40;;;;;;;17.19;100.00;95895.72;5066832;28;20536;-77
2022/07/24 04:26:02;;;;;;;19.42;12.30;;;;;;;17.10;100.00;95888.47;5057911;28;20418;-75
2022/07/24 04:28:27;;;;;;;17.13;11.90;;;;;;;17.14;100.00;95894.75;5061226;28;20040;-76
2022/07/24 04:30:52;;;;;;;18.80;11.57;;;;;;;17.32;100.00;95900.19;5068781;28;20047;-77
2022/07/24 04:33:18;;;;;;;19.35;12.32;;;;;;;17.35;100.00;95904.91;5061821;28;20091;-77
2022/07/24 04:35:43;;;;;;;17.52;12.85;;;;;;;17.35;100.00;95904.91;5066970;28;20514;-77
2022/07/24 04:38:09;;;;;;;16.95;12.07;;;;;;;17.38;100.00;95904.28;5059833;28;20051;-78
2022/07/24 04:40:35;;;;;;;17.67;11.90;;;;;;;17.45;100.00;95899.34;5064777;28;20040;-78
2022/07/24 04:43:00;;;;;;;18.25;12.95;;;;;;;17.51;100.00;95901.88;5062486;28;20041;-76
2022/07/24 04:45:25;;;;;;;18.15;12.40;;;;;;;17.56;100.00;95899.88;5067638;28;20083;-76
2022/07/24 04:47:51;;;;;;;19.48;12.50;;;;;;;17.61;100.00;95902.44;5069078;28;20063;-78
2022/07/24 04:50:17;;;;;;;18.67;12.60;;;;;;;17.66;100.00;95902.28;5061914;28;20052;-78
2022/07/24 04:52:42;;;;;;;20.95;13.65;;;;;;;17.73;100.00;95904.50;5071578;28;20033;-77
2022/07/24 04:55:08;;;;;;;17.50;12.50;;;;;;;17.88;100.00;95905.22;5073418;28;20123;-77
2022/07/24 04:57:34;;;;;;;17.63;12.35;;;;;;;17.94;100.00;95904.81;5072203;28;20048;-77
2022/07/24 04:59:59;;;;;;;16.88;13.05;;;;;;;18.01;100.00;95904.34;5071196;28;20070;-77
2022/07/24 05:02:25;;;;;;;18.35;12.75;;;;;;;18.13;100.00;95911.75;5064980;28;20063;-78
2022/07/24 05:04:51;;;;;;;21.02;13.88;;;;;;;18.27;100.00;95911.66;5072849;28;20457;-78
2022/07/24 05:07:16;;;;;;;19.80;13.10;;;;;;;18.39;100.00;95914.53;5064712;28;20040;-78
2022/07/24 05:09:42;;;;;;;18.25;13.20;;;;;;;18.60;100.00;95913.94;5074099;28;20096;-77
2022/07/24 05:12:08;;;;;;;22.52;13.50;;;;;;;18.65;100.00;95919.13;5060633;28;20055;-77
2022/07/24 05:14:33;;;;;;;20.98;13.20;;;;;;;18.71;100.00;95915.22;5061088;28;20041;-77
2022/07/24 05:16:59;;;;;;;18.55;13.77;;;;;;;18.90;100.00;95922.16;5065487;28;20037;-77
2022/07/24 05:19:24;;;;;;;23.27;13.90;;;;;;;18.94;100.00;95917.78;5054338;28;20550;-77
2022/07/24 05:21:49;;;;;;;19.17;13.45;;;;;;;19.05;100.00;95919.06;5066257;28;20072;-77
2022/07/24 05:24:15;;;;;;;21.13;14.73;;;;;;;19.08;100.00;95913.09;5070188;28;20043;-77
2022/07/24 05:26:40;;;;;;;23.67;15.00;;;;;;;19.23;100.00;95917.16;5071447;28;20425;-77
2022/07/24 05:29:06;;;;;;;26.73;14.88;;;;;;;19.18;100.00;95928.78;5065078;28;20048;-78
2022/07/24 05:31:32;;;;;;;23.17;15.25;;;;;;;19.18;100.00;95926.09;5067048;28;20486;-77
2022/07/24 05:33:58;;;;;;;22.67;15.07;;;;;;;19.34;100.00;95923.75;5068466;28;20131;-77
2022/07/24 05:36:25;;;;;;;25.55;15.93;;;;;;;19.28;100.00;95926.88;5066969;28;20051;-77
2022/07/24 05:38:51;;;;;;;21.50;15.05;;;;;;;19.39;100.00;95923.59;5062338;28;20402;-77
2022/07/24 05:41:16;;;;;;;22.73;16.15;;;;;;;19.36;100.00;95918.09;5069510;28;20040;-79
2022/07/24 05:43:42;;;;;;;22.52;15.88;;;;;;;19.37;100.00;95919.66;5060234;28;20601;-79
2022/07/24 05:46:07;;;;;;;25.35;16.13;;;;;;;19.41;100.00;95925.94;5069687;28;20596;-79
2022/07/24 05:48:33;;;;;;;24.10;15.45;;;;;;;19.43;100.00;95923.72;5072165;28;20650;-78
2022/07/24 05:50:58;;;;;;;28.00;16.95;;;;;;;19.40;100.00;95924.34;5063622;28;20040;-78
2022/07/24 05:53:24;;;;;;;29.45;15.85;;;;;;;19.40;100.00;95921.69;5067385;28;20051;-77
2022/07/24 05:55:51;;;;;;;25.65;16.52;;;;;;;19.40;100.00;95929.69;5071219;28;20086;-78
2022/07/24 05:58:17;;;;;;;22.92;16.05;;;;;;;19.39;100.00;95928.94;5066615;28;20649;-78
2022/07/24 06:00:43;;;;;;;27.30;17.13;;;;;;;19.44;100.00;95914.63;5069365;28;20051;-78
2022/07/24 06:03:09;;;;;;;24.45;16.98;;;;;;;19.60;100.00;95922.16;5069731;28;20087;-78
2022/07/24 06:05:35;;;;;;;23.85;15.80;;;;;;;19.50;100.00;95924.03;5065472;28;20094;-78
2022/07/24 06:08:00;;;;;;;24.27;16.00;;;;;;;19.66;100.00;95921.66;5066900;28;20037;-79
2022/07/24 06:10:26;;;;;;;24.02;15.88;;;;;;;19.64;100.00;95923.06;5060141;28;20044;-80
2022/07/24 06:12:51;;;;;;;22.75;15.45;;;;;;;19.58;100.00;95919.00;5070577;28;20040;-77
2022/07/24 06:15:17;;;;;;;22.98;16.20;;;;;;;19.60;100.00;95914.13;5070311;28;20552;-78
2022/07/24 06:17:42;;;;;;;27.27;17.33;;;;;;;19.67;100.00;95917.88;5065781;28;20045;-79
2022/07/24 06:20:12;;;;;;;22.13;16.30;;;;;;;19.74;100.00;95912.06;5067390;28;20143;-78
2022/07/24 06:22:41;;;;;;;27.52;17.30;;;;;;;19.78;100.00;95915.63;5085925;28;20449;-78
2022/07/24 06:25:08;;;;;;;24.15;16.33;;;;;;;19.81;100.00;95909.72;5072164;28;20045;-80
2022/07/24 06:27:33;;;;;;;24.60;15.13;;;;;;;19.83;100.00;95912.84;5065634;28;20041;-82
2022/07/24 06:29:59;;;;;;;25.48;16.00;;;;;;;20.16;100.00;95909.56;5062247;28;20100;-80
2022/07/24 06:32:24;;;;;;;23.58;15.38;;;;;;;20.04;100.00;95914.81;5073145;28;20044;-81
2022/07/24 06:34:50;;;;;;;20.55;14.50;;;;;;;19.99;100.00;95913.09;5076946;28;20071;-82
2022/07/24 06:37:15;;;;;;;22.48;15.18;;;;;;;19.96;100.00;95911.06;5072547;28;20047;-85
2022/07/24 06:39:41;;;;;;;23.08;15.30;;;;;;;20.04;100.00;95904.13;5071661;28;20532;-80
2022/07/24 06:42:06;;;;;;;19.08;13.05;;;;;;;20.09;100.00;95911.97;5076800;28;20045;-81
2022/07/24 06:44:33;;;;;;;21.00;13.20;;;;;;;20.13;100.00;95912.09;5079236;28;20094;-80
2022/07/24 06:46:59;;;;;;;17.73;12.75;;;;;;;20.12;100.00;95905.97;5080484;28;20040;-80
2022/07/24 06:49:25;;;;;;;19.08;13.90;;;;;;;20.13;100.00;95907.56;5079141;28;20037;-85
2022/07/24 06:51:50;;;;;;;20.75;13.80;;;;;;;20.35;100.00;95908.41;5072528;28;20043;-80
2022/07/24 06:54:16;;;;;;;17.98;13.23;;;;;;;20.32;100.00;95909.03;5078954;28;20045;-83
2022/07/24 06:56:41;;;;;;;20.15;14.20;;;;;;;20.30;100.00;95906.69;5068440;28;20041;-83
2022/07/24 06:59:07;;;;;;;17.98;13.13;;;;;;;20.66;100.00;95912.63;5071468;28;20051;-82
2022/07/24 07:01:32;;;;;;;18.65;12.60;;;;;;;20.76;100.00;95909.63;5066572;28;20040;-83
2022/07/24 07:03:57;;;;;;;17.90;12.68;;;;;;;20.89;99.30;95910.47;5073547;28;20040;-81
2022/07/24 07:06:23;;;;;;;19.02;12.93;;;;;;;20.84;99.02;95908.75;5070242;28;20060;-82
2022/07/24 07:08:48;;;;;;;17.52;13.25;;;;;;;20.75;100.00;95910.72;5061476;28;20044;-81
2022/07/24 07:11:14;;;;;;;19.25;13.57;;;;;;;20.74;100.00;95920.59;5076039;28;20043;-82
2022/07/24 07:13:39;;;;;;;19.63;12.50;;;;;;;20.68;100.00;95910.44;5068435;28;20044;-82
2022/07/24 07:16:05;;;;;;;17.23;11.75;;;;;;;20.91;100.00;95918.94;5069000;28;20048;-83
2022/07/24 07:18:30;;;;;;;17.02;11.25;;;;;;;21.00;96.37;95916.19;5058272;28;20091;-79
2022/07/24 07:20:56;;;;;;;14.38;11.18;;;;;;;21.19;95.01;95913.84;5067268;28;20052;-81
2022/07/24 07:23:22;;;;;;;15.35;11.63;;;;;;;21.59;89.49;95921.41;5071211;28;20418;-81
2022/07/24 07:25:48;;;;;;;14.80;10.63;;;;;;;21.44;91.78;95913.94;5068123;28;20111;-80
2022/07/24 07:28:14;;;;;;;15.45;11.10;;;;;;;21.27;95.33;95918.31;5069762;28;20037;-83
2022/07/24 07:30:39;;;;;;;16.40;11.27;;;;;;;21.68;89.78;95917.81;5061848;28;20037;-84
2022/07/24 07:33:05;;;;;;;14.60;11.30;;;;;;;21.73;91.75;95914.94;5067991;28;20040;-82
2022/07/24 07:35:30;;;;;;;14.05;10.88;;;;;;;21.63;90.34;95916.91;5062605;28;20074;-82
2022/07/24 07:37:56;;;;;;;14.32;10.27;;;;;;;21.61;89.66;95924.50;5071078;28;20048;-83
2022/07/24 07:40:22;;;;;;;16.25;11.50;;;;;;;21.51;92.29;95914.22;5067537;28;20036;-79
2022/07/24 07:42:48;;;;;;;14.07;10.50;;;;;;;21.91;87.23;95915.53;5061690;28;20055;-79
2022/07/24 07:45:13;;;;;;;18.15;10.98;;;;;;;21.82;89.22;95915.63;5082705;28;20498;-80
2022/07/24 07:47:38;;;;;;;20.63;11.25;;;;;;;22.27;86.03;95906.00;5071623;28;20494;-81
2022/07/24 07:50:05;;;;;;;14.98;10.55;;;;;;;22.36;81.80;95897.84;5066743;28;20556;-81
2022/07/24 07:52:30;;;;;;;14.40;10.88;;;;;;;22.17;85.30;95906.41;5058384;28;20044;-83
2022/07/24 07:54:56;;;;;;;14.27;10.65;;;;;;;22.01;84.71;95914.31;5069614;28;20048;-79
2022/07/24 07:57:21;;;;;;;13.68;10.43;;;;;;;22.21;82.51;95908.09;5063583;28;20063;-77
2022/07/24 07:59:47;;;;;;;15.38;10.93;;;;;;;22.43;80.66;95903.44;5069913;28;20036;-79
2022/07/24 08:02:13;;;;;;;13.68;9.73;;;;;;;22.41;80.91;95905.66;5068690;28;20040;-78
2022/07/24 08:04:38;;;;;;;17.95;10.82;;;;;;;22.34;81.19;95900.06;5068074;28;20036;-83
2022/07/24 08:07:04;;;;;;;14.75;10.20;;;;;;;22.66;81.97;95912.56;5068083;28;20690;-80
2022/07/24 08:09:29;;;;;;;14.65;10.43;;;;;;;22.55;82.56;95916.06;5066199;28;20037;-82
2022/07/24 08:11:55;;;;;;;14.25;10.57;;;;;;;22.54;80.31;95907.25;5067589;28;20032;-80
2022/07/24 08:14:20;;;;;;;16.63;10.63;;;;;;;22.90;76.55;95910.97;5065281;28;20494;-81
2022/07/24 08:16:45;;;;;;;13.77;9.57;;;;;;;22.77;78.42;95907.53;5072719;28;20052;-80
2022/07/24 08:19:11;;;;;;;14.05;9.63;;;;;;;22.91;73.71;95901.78;5065993;28;20052;-76
2022/07/24 08:21:37;;;;;;;12.13;9.23;;;;;;;22.88;77.48;95907.84;5065197;28;20539;-77
2022/07/24 08:24:02;;;;;;;12.85;9.35;;;;;;;22.86;73.55;95910.09;5067667;28;20609;-78
2022/07/24 08:26:30;;;;;;;13.13;9.07;;;;;;;23.01;75.25;95905.91;5072261;28;20418;-80
2022/07/24 08:28:57;;;;;;;15.85;9.82;;;;;;;23.01;75.07;95898.66;5072351;28;20040;-76
2022/07/24 08:31:25;;;;;;;22.60;9.98;;;;;;;23.35;72.75;95907.25;5087819;28;20398;-79
2022/07/24 08:33:51;;;;;;;13.75;9.77;;;;;;;23.26;71.15;95906.66;5086775;28;20047;-80
2022/07/24 08:36:17;;;;;;;15.90;9.05;;;;;;;23.26;72.82;95895.91;5068241;28;20044;-80
2022/07/24 08:38:42;;;;;;;13.70;9.13;;;;;;;23.30;70.40;95902.16;5066920;28;20074;-79
2022/07/24 08:41:08;;;;;;;12.52;9.50;;;;;;;23.41;70.07;95901.66;5067003;28;20044;-79
2022/07/24 08:43:33;;;;;;;13.50;8.52;;;;;;;23.56;70.56;95902.81;5071807;28;20048;-79
2022/07/24 08:46:00;;;;;;;13.43;9.23;;;;;;;23.90;70.04;95901.41;5069450;28;20041;-79
2022/07/24 08:48:27;;;;;;;14.70;8.73;;;;;;;23.85;68.86;95904.34;5069823;28;20047;-80
2022/07/24 08:50:52;;;;;;;13.07;8.73;;;;;;;23.72;69.47;95900.94;5073457;28;20821;-81
2022/07/24 08:53:22;;;;;;;14.60;8.73;;;;;;;23.73;68.93;95896.34;5072766;28;20036;-77
2022/07/24 08:55:48;;;;;;;14.07;10.02;;;;;;;23.63;70.12;95898.44;5071390;28;20044;-80
2022/07/24 08:58:14;;;;;;;13.90;9.55;;;;;;;23.52;68.49;95892.00;5073872;28;20447;-79
2022/07/24 09:00:40;;;;;;;11.70;8.95;;;;;;;23.49;69.60;95895.38;5070128;28;20047;-79
2022/07/24 09:03:07;;;;;;;12.27;8.35;;;;;;;23.68;68.23;95884.72;5073414;28;20043;-79
2022/07/24 09:05:34;;;;;;;11.20;9.30;;;;;;;24.19;67.61;95902.09;5067912;28;20037;-79
2022/07/24 09:08:12;;;;;;;14.90;9.23;;;;;;;24.21;66.86;95894.50;5073101;28;20041;-77
2022/07/24 09:10:37;;;;;;;11.02;8.25;;;;;;;24.35;65.29;95889.44;5067662;28;20422;-78
2022/07/24 09:13:16;;;;;;;11.43;9.00;;;;;;;24.50;64.77;95892.47;5070225;28;20045;-78
2022/07/24 09:15:47;;;;;;;14.68;9.30;;;;;;;24.65;64.26;95896.25;5062192;28;20037;-79
2022/07/24 09:18:26;;;;;;;11.63;8.82;;;;;;;24.77;65.40;95892.66;5068720;28;20043;-78
2022/07/24 09:20:52;;;;;;;11.40;8.68;;;;;;;24.77;64.33;95889.97;5067523;28;20040;-78
2022/07/24 09:23:20;;;;;;;11.40;8.75;;;;;;;24.76;64.40;95885.75;5069650;28;20040;-78
2022/07/24 09:25:52;;;;;;;12.45;9.10;;;;;;;24.81;62.67;95888.13;5071838;28;20044;-78
2022/07/24 09:28:17;;;;;;;10.75;8.93;;;;;;;24.82;62.53;95878.94;5070744;28;20513;-78
2022/07/24 09:30:43;;;;;;;12.32;8.70;;;;;;;24.73;64.66;95876.47;5070576;28;20036;-78
2022/07/24 09:33:12;;;;;;;14.50;8.77;;;;;;;24.75;66.72;95884.94;5060730;28;20120;-79
2022/07/24 09:35:43;;;;;;;10.48;8.57;;;;;;;25.23;63.69;95876.69;5072586;28;20048;-80
2022/07/24 09:38:16;;;;;;;10.80;8.98;;;;;;;25.16;61.35;95876.56;5072064;28;20123;-78
2022/07/24 09:40:46;;;;;;;;;;;;;;;25.11;61.71;95885.69;5069449;28;20041;-78
2022/07/24 09:43:26;;;;;;;12.32;8.82;;;;;;;25.23;60.98;95879.38;5070640;28;19928;-78
2022/07/24 09:46:08;;;;;;;12.90;8.90;;;;;;;25.19;61.44;95882.00;5070411;28;20040;-77
2022/07/24 09:48:38;;;;;;;12.48;8.35;;;;;;;25.16;62.16;95868.47;5070092;28;20037;-78
2022/07/24 09:51:15;;;;;;;11.60;8.15;;;;;;;25.00;61.64;95872.00;5072856;28;20067;-77
2022/07/24 09:53:43;;;;;;;11.30;8.60;;;;;;;24.99;62.78;95883.91;5073053;28;20149;-77
2022/07/24 09:56:13;;;;;;;11.43;8.73;;;;;;;25.01;62.00;95870.88;5072025;28;20534;-78
2022/07/24 09:58:47;;;;;;;10.93;8.68;;;;;;;25.12;61.57;95876.47;5058229;28;20041;-77
2022/07/24 10:01:17;;;;;;;14.07;9.43;;;;;;;25.16;62.47;95871.19;5071303;28;20041;-78
2022/07/24 10:03:44;;;;;;;14.35;9.27;;;;;;;25.16;62.59;95873.88;5066223;28;20093;-78
2022/07/24 10:06:12;;;;;;;15.27;9.85;;;;;;;25.42;59.84;95868.59;5071336;28;20064;-77
2022/07/24 10:08:40;;;;;;;10.95;9.13;;;;;;;25.60;58.84;95868.16;5069117;28;20058;-78
2022/07/24 10:11:06;;;;;;;13.25;8.73;;;;;;;25.76;58.48;95874.22;5066153;28;20041;-77
2022/07/24 10:13:32;;;;;;;12.07;9.20;;;;;;;25.93;59.13;95864.09;5075952;28;20052;-77
2022/07/24 10:16:29;;;;;;;14.55;8.40;;;;;;;26.26;58.35;95860.78;5074470;28;20444;-77
2022/07/24 10:19:06;;;;;;;14.38;9.00;;;;;;;26.66;56.00;95850.53;5079824;28;20040;-77
2022/07/24 10:21:37;;;;;;;12.00;8.50;;;;;;;26.71;55.17;95852.97;5068435;28;20044;-78
2022/07/24 10:24:18;;;;;;;11.95;8.32;;;;;;;26.61;56.47;95858.97;5070722;28;20053;-77
2022/07/24 10:26:58;;;;;;;12.82;9.52;;;;;;;26.48;55.42;95858.41;5070336;28;20036;-78
2022/07/24 10:29:28;;;;;;;10.98;8.75;;;;;;;26.67;55.90;95862.91;5071579;28;20048;-77
2022/07/24 10:31:55;;;;;;;10.52;8.68;;;;;;;26.82;55.15;95857.72;5070699;28;20056;-77
2022/07/24 10:34:24;;;;;;;12.27;8.90;;;;;;;26.71;54.41;95858.34;5070441;28;20045;-77
2022/07/24 10:37:06;;;;;;;12.32;9.02;;;;;;;26.83;55.01;95854.66;5056155;28;20070;-77
2022/07/24 10:39:50;;;;;;;12.98;9.30;;;;;;;26.96;53.90;95852.50;5069998;28;20114;-77
2022/07/24 10:42:16;;;;;;;12.17;9.23;;;;;;;26.77;53.15;95856.88;5059006;28;20107;-78
2022/07/24 10:44:44;;;;;;;12.20;8.68;;;;;;;27.27;51.43;95850.53;5071027;28;20100;-77
2022/07/24 10:47:16;;;;;;;11.32;8.98;;;;;;;28.13;51.77;95835.13;5068782;28;20064;-77
2022/07/24 10:49:53;;;;;;;12.07;8.75;;;;;;;28.24;50.04;95845.25;5065876;28;20033;-78
2022/07/24 10:52:28;;;;;;;13.55;9.00;;;;;;;27.77;51.03;95840.22;5069132;28;20047;-77
2022/07/24 10:55:18;;;;;;;10.80;8.57;;;;;;;28.03;50.46;95841.25;5069427;28;20037;-77
2022/07/24 10:57:55;;;;;;;11.02;8.48;;;;;;;28.64;48.10;95835.47;5056328;28;20406;-77
2022/07/24 11:00:26;;;;;;;12.45;9.07;;;;;;;29.38;48.05;95838.88;5060317;28;20052;-77
2022/07/24 11:02:57;;;;;;;10.57;8.63;;;;;;;30.13;44.73;95838.16;5069262;28;20048;-78
2022/07/24 11:05:29;;;;;;;13.15;8.82;;;;;;;30.46;44.07;95838.91;5070617;28;20048;-78
2022/07/24 11:08:29;;;;;;;11.10;8.70;;;;;;;29.72;44.50;95830.38;5071263;28;20037;-78
2022/07/24 11:10:58;;;;;;;10.88;8.75;;;;;;;28.77;46.17;95836.69;5064149;28;20040;-78
2022/07/24 11:13:33;;;;;;;16.17;8.95;;;;;;;29.16;45.99;95833.34;5070537;28;20044;-78